Time;durP1;ratioP1;P1;durP2;ratioP2;P2;SDS_P1;SDS_P2;PMS_P1;PMS_P2;Temp;Humidity;BMP_temperature;BMP_pressure;BME280_temperature;BME280_humidity;BME280_pressure;Samples;Min_cycle;Max_cycle;Signal;HPM_P1;HPM_P2
2023/07/05 00:01:42;;;;;;;;;19.40;17.60;;;;;22.48;56.69;99235.19;4926898;29;9489;-75
2023/07/05 00:04:11;;;;;;;;;18.60;18.60;;;;;22.35;57.16;99236.13;4911820;29;8905;-77
2023/07/05 00:06:40;;;;;;;;;18.80;17.40;;;;;22.40;56.85;99235.75;4912928;29;8879;-77
2023/07/05 00:09:09;;;;;;;;;19.60;17.40;;;;;22.47;56.66;99236.13;4913296;29;8887;-79
2023/07/05 00:11:38;;;;;;;;;17.40;17.40;;;;;22.33;57.23;99242.53;4915667;29;8891;-74
2023/07/05 00:14:06;;;;;;;;;16.20;16.00;;;;;22.27;57.46;99246.53;4913731;29;8963;-76
2023/07/05 00:16:35;;;;;;;;;18.40;16.80;;;;;22.34;56.91;99242.44;4915749;29;8892;-77
2023/07/05 00:19:07;;;;;;;;;20.00;17.60;;;;;22.35;57.16;99245.97;4909797;29;8910;-75
2023/07/05 00:21:36;;;;;;;;;18.80;17.80;;;;;22.45;56.87;99243.44;4909581;29;8872;-77
2023/07/05 00:24:05;;;;;;;;;17.80;16.00;;;;;22.50;56.51;99242.13;4910336;29;8884;-75
2023/07/05 00:26:34;;;;;;;;;17.40;17.40;;;;;22.52;56.39;99234.81;4910898;29;8857;-76
2023/07/05 00:29:03;;;;;;;;;18.40;17.20;;;;;22.55;56.26;99245.31;4892359;29;8887;-77
2023/07/05 00:31:32;;;;;;;;;19.20;18.40;;;;;22.59;56.22;99243.25;4909389;29;8888;-76
2023/07/05 00:34:01;;;;;;;;;15.40;15.20;;;;;22.60;56.23;99244.97;4909213;29;8871;-77
2023/07/05 00:36:31;;;;;;;;;18.20;17.60;;;;;22.37;56.83;99242.22;4909198;29;8872;-77
2023/07/05 00:39:00;;;;;;;;;20.00;16.00;;;;;22.41;56.71;99254.41;4908610;29;8879;-77
2023/07/05 00:41:29;;;;;;;;;18.75;17.50;;;;;22.41;56.58;99246.38;4852895;29;1193560;-75
2023/07/05 00:43:57;;;;;;;;;15.80;15.80;;;;;22.44;56.43;99242.59;4848523;29;9024;-78
2023/07/05 00:46:31;;;;;;;;;18.00;17.20;;;;;22.49;55.93;99250.28;4908803;29;8882;-79
2023/07/05 00:49:04;;;;;;;;;16.40;16.40;;;;;22.54;56.06;99250.78;4909743;29;8871;-76
2023/07/05 00:51:43;;;;;;;;;17.80;16.60;;;;;22.66;55.63;99244.50;4875988;29;8889;-76
2023/07/05 00:54:11;;;;;;;;;18.00;16.40;;;;;22.59;55.39;99252.13;4891347;29;8878;-78
2023/07/05 00:56:46;;;;;;;;;20.20;18.40;;;;;22.59;55.39;99254.81;4921520;29;8969;-79
2023/07/05 00:59:16;;;;;;;;;18.20;17.60;;;;;22.28;56.02;99253.63;4926719;29;8899;-78
2023/07/05 01:01:46;;;;;;;;;16.80;15.80;;;;;22.36;55.61;99255.72;4909917;29;8883;-74
2023/07/05 01:04:34;;;;;;;;;19.00;19.00;;;;;22.38;55.83;99251.09;4926773;29;8874;-76
2023/07/05 01:07:05;;;;;;;;;16.00;15.40;;;;;22.31;55.55;99242.66;4928599;29;8871;-76
2023/07/05 01:09:34;;;;;;;;;20.00;18.60;;;;;22.30;55.56;99243.63;4932101;29;8875;-76
2023/07/05 01:12:15;;;;;;;;;22.40;19.00;;;;;22.37;55.21;99233.31;4946605;29;8875;-75
2023/07/05 01:14:54;;;;;;;;;18.20;16.60;;;;;22.34;55.37;99239.75;4946443;29;9668;-77
2023/07/05 01:17:35;;;;;;;;;18.40;16.40;;;;;22.37;55.18;99246.69;4876976;29;8859;-78
2023/07/05 01:20:20;;;;;;;;;17.80;17.60;;;;;22.38;55.02;99251.09;4939493;29;8977;-77
2023/07/05 01:23:34;;;;;;;;;19.00;18.40;;;;;22.23;55.17;99243.19;4890543;28;8882;-75
2023/07/05 01:26:33;;;;;;;;;15.00;15.00;;;;;22.25;55.33;99242.25;4863348;29;8885;-78
2023/07/05 01:29:36;;;;;;;;;18.80;16.00;;;;;22.09;55.56;99231.81;4873790;29;8870;-74
2023/07/05 01:32:11;;;;;;;;;20.40;16.40;;;;;21.99;55.67;99242.34;4874294;29;8869;-75
2023/07/05 01:34:47;;;;;;;;;16.40;15.80;;;;;21.88;56.09;99240.47;4871125;29;8893;-76
2023/07/05 01:37:28;;;;;;;;;20.80;18.00;;;;;21.93;55.98;99237.44;4856237;29;8890;-76
2023/07/05 01:39:57;;;;;;;;;19.20;18.00;;;;;21.88;55.42;99237.78;4868056;29;8896;-77
2023/07/05 01:42:30;;;;;;;;;17.40;17.20;;;;;21.92;55.71;99236.59;4854062;29;8957;-75
2023/07/05 01:45:00;;;;;;;;;17.40;16.60;;;;;21.93;55.32;99237.44;4840394;29;9043;-78
2023/07/05 01:47:37;;;;;;;;;17.20;17.20;;;;;22.05;55.21;99239.19;4840891;29;8915;-76
2023/07/05 01:50:14;;;;;;;;;22.00;18.80;;;;;22.04;55.11;99238.34;4855796;29;8883;-78
2023/07/05 01:52:47;;;;;;;;;18.00;17.40;;;;;22.02;54.97;99236.78;4854755;29;9694;-76
2023/07/05 01:55:25;;;;;;;;;16.00;14.80;;;;;22.07;54.90;99231.94;4840563;29;8943;-76
2023/07/05 01:58:00;;;;;;;;;14.40;13.40;;;;;21.99;55.20;99236.97;4866466;29;8885;-75
2023/07/05 02:00:31;;;;;;;;;16.60;14.60;;;;;21.71;55.55;99233.66;4868453;29;8967;-75
2023/07/05 02:03:07;;;;;;;;;15.20;15.00;;;;;21.84;55.71;99237.16;4913458;29;8986;-75
2023/07/05 02:05:37;;;;;;;;;16.80;16.40;;;;;21.83;55.23;99229.25;4912973;29;8851;-74
2023/07/05 02:08:06;;;;;;;;;15.60;15.60;;;;;21.87;55.36;99232.56;4913837;29;8879;-75
2023/07/05 02:10:35;;;;;;;;;14.40;14.20;;;;;21.76;55.50;99239.53;4900803;29;8869;-73
2023/07/05 02:13:10;;;;;;;;;14.40;14.00;;;;;21.82;55.24;99243.56;4907629;29;8883;-73
2023/07/05 02:15:40;;;;;;;;;16.20;14.00;;;;;21.68;55.79;99233.88;4912016;29;8859;-75
2023/07/05 02:18:10;;;;;;;;;15.20;15.20;;;;;21.58;56.20;99247.03;4909898;29;8894;-74
2023/07/05 02:20:41;;;;;;;;;14.80;14.00;;;;;21.57;55.87;99231.94;4923286;29;8863;-76
2023/07/05 02:23:10;;;;;;;;;20.00;15.80;;;;;21.58;55.63;99230.13;4928684;29;8872;-73
2023/07/05 02:25:39;;;;;;;;;16.60;15.80;;;;;21.65;55.95;99234.09;4913246;29;9001;-75
2023/07/05 02:28:11;;;;;;;;;18.20;14.80;;;;;21.68;55.67;99239.22;4913089;29;8985;-74
2023/07/05 02:30:40;;;;;;;;;14.20;14.20;;;;;21.70;55.40;99239.97;4928831;29;8879;-74
2023/07/05 02:33:11;;;;;;;;;13.00;13.00;;;;;21.70;55.64;99231.09;4914199;29;8895;-74
2023/07/05 02:35:40;;;;;;;;;14.80;12.80;;;;;21.60;55.33;99234.44;4911790;29;10226;-75
2023/07/05 02:38:09;;;;;;;;;19.40;17.80;;;;;21.59;55.99;99237.19;4928514;29;8965;-74
2023/07/05 02:40:38;;;;;;;;;17.40;15.20;;;;;21.36;56.45;99233.47;4912968;29;8887;-76
2023/07/05 02:43:06;;;;;;;;;14.40;14.40;;;;;21.41;56.48;99236.69;4920315;29;8884;-78
2023/07/05 02:45:36;;;;;;;;;14.20;14.00;;;;;21.49;56.33;99234.31;4919172;29;8874;-77
2023/07/05 02:48:06;;;;;;;;;15.20;13.20;;;;;21.51;56.32;99232.38;4913897;29;9864;-75
2023/07/05 02:50:40;;;;;;;;;16.00;15.60;;;;;21.56;55.91;99232.03;4928087;29;8918;-74
2023/07/05 02:53:08;;;;;;;;;17.00;16.40;;;;;21.58;56.04;99232.81;4912322;29;8867;-76
2023/07/05 02:55:37;;;;;;;;;15.00;15.00;;;;;21.55;55.63;99228.53;4912673;29;8860;-76
2023/07/05 02:58:06;;;;;;;;;14.80;14.20;;;;;21.51;55.90;99227.03;4911936;29;8879;-78
2023/07/05 03:00:36;;;;;;;;;15.00;13.80;;;;;21.47;55.97;99222.03;4912464;29;8847;-73
2023/07/05 03:03:05;;;;;;;;;13.60;12.20;;;;;21.39;56.22;99218.09;4910965;29;8950;-74
2023/07/05 03:05:34;;;;;;;;;19.40;18.40;;;;;21.41;56.09;99221.50;4910703;29;8968;-75
2023/07/05 03:08:05;;;;;;;;;15.00;15.00;;;;;21.50;56.06;99219.13;4926605;29;9000;-75
2023/07/05 03:10:38;;;;;;;;;17.60;15.20;;;;;21.59;55.75;99226.47;4883477;29;8885;-74
2023/07/05 03:13:07;;;;;;;;;17.80;14.60;;;;;21.56;55.64;99227.56;4912868;29;8926;-73
2023/07/05 03:15:36;;;;;;;;;15.20;14.40;;;;;21.55;55.40;99225.84;4903998;29;8888;-74
2023/07/05 03:18:04;;;;;;;;;14.20;12.20;;;;;21.54;55.66;99228.63;4910905;29;8982;-74
2023/07/05 03:20:33;;;;;;;;;15.00;15.00;;;;;21.56;55.90;99224.03;4926196;29;8857;-75
2023/07/05 03:23:03;;;;;;;;;18.40;17.60;;;;;21.52;55.70;99223.41;4910705;29;9008;-76
2023/07/05 03:25:32;;;;;;;;;38.25;34.00;;;;;21.57;55.42;99225.75;4907472;29;9008;-74
2023/07/05 03:28:03;;;;;;;;;18.20;17.80;;;;;21.56;55.87;99227.56;4901186;29;8919;-74
2023/07/05 03:30:32;;;;;;;;;14.80;13.60;;;;;21.61;55.66;99222.75;4911348;29;8869;-75
2023/07/05 03:33:01;;;;;;;;;14.20;14.20;;;;;21.67;55.67;99229.47;4866487;29;9632;-76
2023/07/05 03:35:31;;;;;;;;;16.00;14.80;;;;;21.63;55.14;99225.31;4880277;29;8859;-75
2023/07/05 03:37:59;;;;;;;;;18.40;16.60;;;;;21.63;55.11;99228.88;4912216;29;8899;-77
2023/07/05 03:40:30;;;;;;;;;16.20;13.80;;;;;21.68;55.18;99225.00;4911561;29;8883;-74
2023/07/05 03:42:58;;;;;;;;;14.60;13.80;;;;;21.71;55.02;99231.00;4923921;29;8882;-77
2023/07/05 03:45:27;;;;;;;;;16.60;15.40;;;;;21.24;56.33;99227.19;4905974;29;8873;-76
2023/07/05 03:47:56;;;;;;;;;16.20;15.80;;;;;21.33;56.51;99223.84;4914705;29;8855;-74
2023/07/05 03:50:25;;;;;;;;;15.40;15.00;;;;;21.31;56.39;99219.59;4916302;29;8863;-75
2023/07/05 03:52:54;;;;;;;;;18.00;17.80;;;;;21.10;56.80;99233.50;4912715;29;8906;-75
2023/07/05 03:55:23;;;;;;;;;17.40;15.40;;;;;21.15;57.03;99235.84;4895167;29;8892;-78
2023/07/05 03:57:53;;;;;;;;;28.40;26.60;;;;;21.23;56.62;99225.47;4912125;29;8883;-79
2023/07/05 04:00:22;;;;;;;;;27.80;26.60;;;;;21.32;56.37;99224.81;4911487;29;8875;-77
2023/07/05 04:02:51;;;;;;;;;18.20;14.80;;;;;21.19;56.78;99216.81;4910254;29;8981;-78
2023/07/05 04:05:20;;;;;;;;;17.80;17.80;;;;;21.36;56.30;99220.97;4895494;29;8851;-77
2023/07/05 04:07:49;;;;;;;;;17.20;16.80;;;;;21.22;57.00;99227.28;4927021;29;8906;-78
2023/07/05 04:10:18;;;;;;;;;19.80;19.60;;;;;20.96;57.83;99221.09;4912375;29;8898;-80
2023/07/05 04:12:46;;;;;;;;;18.00;16.60;;;;;20.63;58.77;99227.78;4894863;29;8863;-77
2023/07/05 04:15:17;;;;;;;;;29.60;27.40;;;;;20.65;58.76;99228.53;4912561;29;8883;-78
2023/07/05 04:17:45;;;;;;;;;50.25;42.50;;;;;20.78;58.18;99231.19;4912879;29;8847;-80
2023/07/05 04:20:15;;;;;;;;;19.40;17.00;;;;;20.81;58.47;99232.81;4909382;29;8855;-78
2023/07/05 04:22:43;;;;;;;;;16.00;15.80;;;;;21.03;57.40;99229.53;4912544;29;8907;-79
2023/07/05 04:25:13;;;;;;;;;16.80;16.40;;;;;21.22;57.01;99231.78;4926356;29;8889;-80
2023/07/05 04:27:41;;;;;;;;;16.20;16.20;;;;;21.14;57.43;99232.31;4912678;29;8993;-77
2023/07/05 04:30:14;;;;;;;;;23.20;22.20;;;;;21.35;56.73;99224.63;4912568;29;8871;-76
2023/07/05 04:32:44;;;;;;;;;2.80;2.40;;;;;21.21;57.14;99230.06;4879313;29;9013;-78
2023/07/05 04:35:13;;;;;;;;;18.60;17.60;;;;;21.26;57.10;99225.25;4912497;29;8918;-81
2023/07/05 04:37:42;;;;;;;;;17.60;15.40;;;;;21.46;56.16;99221.16;4896615;29;8884;-78
2023/07/05 04:40:12;;;;;;;;;16.60;16.60;;;;;21.55;56.43;99222.31;4883848;29;8978;-78
2023/07/05 04:42:40;;;;;;;;;47.75;38.75;;;;;21.71;56.00;99222.97;4913311;29;8864;-78
2023/07/05 04:45:10;;;;;;;;;19.20;19.20;;;;;21.82;55.20;99225.72;4931273;29;8875;-79
2023/07/05 04:47:39;;;;;;;;;15.60;14.60;;;;;21.94;55.22;99228.47;4916214;29;8887;-79
2023/07/05 04:50:10;;;;;;;;;17.60;17.00;;;;;22.04;55.08;99224.97;4914734;29;8970;-78
2023/07/05 04:52:38;;;;;;;;;17.20;16.40;;;;;22.14;54.78;99235.84;4914684;29;8875;-79
2023/07/05 04:55:08;;;;;;;;;22.20;21.00;;;;;22.15;54.65;99231.38;4916321;29;8886;-79
2023/07/05 04:57:41;;;;;;;;;38.25;33.25;;;;;22.22;54.07;99225.44;4917774;29;8948;-80
2023/07/05 05:00:12;;;;;;;;;12.80;12.00;;;;;22.19;53.87;99231.00;4926630;29;8954;-80
2023/07/05 05:02:41;;;;;;;;;17.60;17.60;;;;;21.50;56.33;99230.66;4906967;29;8916;-80
2023/07/05 05:05:11;;;;;;;;;46.50;37.50;;;;;21.66;55.67;99230.47;4916640;29;9668;-81
2023/07/05 05:07:40;;;;;;;;;27.80;25.60;;;;;21.86;55.20;99242.38;4930542;29;9707;-80
2023/07/05 05:10:09;;;;;;;;;14.20;14.00;;;;;22.07;54.72;99234.63;4930300;29;8891;-79
2023/07/05 05:12:38;;;;;;;;;18.20;15.00;;;;;22.18;54.43;99236.47;4915806;29;8879;-79
2023/07/05 05:15:08;;;;;;;;;17.40;17.40;;;;;21.60;55.76;99238.94;4928999;29;8867;-79
2023/07/05 05:17:36;;;;;;;;;25.00;22.20;;;;;21.45;55.86;99233.69;4914750;29;8859;-78
2023/07/05 05:20:08;;;;;;;;;20.40;18.60;;;;;21.78;55.30;99237.59;4914847;29;9649;-78
2023/07/05 05:22:38;;;;;;;;;26.60;23.80;;;;;21.74;55.94;99244.13;4915224;29;8860;-81
2023/07/05 05:25:07;;;;;;;;;18.20;18.00;;;;;21.92;55.54;99231.25;4915039;29;8874;-80
2023/07/05 05:27:36;;;;;;;;;21.40;21.00;;;;;22.19;54.81;99238.19;4913188;29;8886;-79
2023/07/05 05:30:06;;;;;;;;;19.20;18.00;;;;;22.27;54.60;99243.00;4913004;29;8872;-77
2023/07/05 05:32:35;;;;;;;;;23.20;22.20;;;;;22.43;54.27;99230.19;4929622;29;8880;-78
2023/07/05 05:35:06;;;;;;;;;15.60;14.20;;;;;22.70;53.31;99232.56;4913874;29;8872;-81
2023/07/05 05:37:35;;;;;;;;;20.00;17.00;;;;;22.66;52.73;99241.81;4902192;29;8875;-78
2023/07/05 05:40:06;;;;;;;;;20.80;20.20;;;;;22.79;52.59;99242.59;4919469;29;8891;-78
2023/07/05 05:42:35;;;;;;;;;22.00;19.00;;;;;22.95;52.32;99239.59;4915074;29;8888;-78
2023/07/05 05:45:05;;;;;;;;;27.50;27.50;;;;;22.38;53.69;99241.22;4913882;29;8880;-79
2023/07/05 05:47:34;;;;;;;;;18.60;18.60;;;;;22.68;53.09;99239.88;4913152;29;9010;-78
2023/07/05 05:50:03;;;;;;;;;15.80;15.80;;;;;23.05;52.22;99246.94;4914962;29;8871;-79
2023/07/05 05:52:32;;;;;;;;;21.20;19.80;;;;;22.54;53.21;99240.94;4914920;29;8960;-81
2023/07/05 05:55:01;;;;;;;;;20.00;18.40;;;;;22.97;52.11;99239.47;4913631;29;8897;-78
2023/07/05 05:57:31;;;;;;;;;14.20;14.20;;;;;23.31;51.61;99239.53;4914960;29;8851;-82
2023/07/05 06:00:00;;;;;;;;;16.80;16.40;;;;;23.67;50.52;99235.75;4915097;29;8851;-77
2023/07/05 06:02:33;;;;;;;;;18.20;16.00;;;;;23.88;49.32;99237.66;4915251;29;8928;-77
2023/07/05 06:05:03;;;;;;;;;25.20;25.00;;;;;23.41;50.11;99245.00;4930018;29;9010;-82
2023/07/05 06:07:32;;;;;;;;;17.80;17.20;;;;;22.39;52.81;99253.66;4915656;29;8879;-75
2023/07/05 06:10:01;;;;;;;;;15.40;15.20;;;;;22.41;53.28;99251.72;4914262;29;9021;-79
2023/07/05 06:12:31;;;;;;;;;20.00;19.20;;;;;22.81;52.17;99248.69;4930227;29;8954;-79
2023/07/05 06:15:00;;;;;;;;;22.60;22.60;;;;;21.90;54.91;99257.25;4916211;29;8891;-78
2023/07/05 06:17:29;;;;;;;;;21.00;20.60;;;;;21.80;55.95;99254.38;4918439;29;8952;-77
2023/07/05 06:19:58;;;;;;;;;18.00;15.80;;;;;21.89;55.97;99257.38;4916350;29;8871;-76
2023/07/05 06:22:26;;;;;;;;;23.20;21.40;;;;;22.12;55.30;99244.97;4914414;29;8859;-77
2023/07/05 06:24:55;;;;;;;;;18.00;17.00;;;;;21.95;55.24;99251.56;4912834;29;8958;-79
2023/07/05 06:27:24;;;;;;;;;18.80;17.20;;;;;22.09;55.07;99255.91;4929336;29;8986;-77
2023/07/05 06:29:55;;;;;;;;;22.20;20.60;;;;;21.82;56.16;99252.47;4929022;29;8883;-78
2023/07/05 06:32:24;;;;;;;;;18.00;18.00;;;;;22.25;54.77;99258.31;4929600;29;8875;-78
2023/07/05 06:34:53;;;;;;;;;23.20;21.00;;;;;22.64;53.78;99245.56;4892572;29;8978;-83
2023/07/05 06:37:22;;;;;;;;;24.60;22.20;;;;;23.09;52.71;99230.50;4892179;29;8863;-81
2023/07/05 06:39:51;;;;;;;;;22.20;20.40;;;;;23.49;52.06;99231.84;4892856;29;8887;-82
2023/07/05 06:42:20;;;;;;;;;20.80;18.40;;;;;23.52;51.10;99228.94;4859807;29;8877;-79
2023/07/05 06:44:58;;;;;;;;;20.60;20.40;;;;;22.44;54.70;99237.22;4858511;29;8866;-79
2023/07/05 06:47:26;;;;;;;;;19.00;18.00;;;;;22.77;53.55;99231.13;4859634;29;8891;-81
2023/07/05 06:49:57;;;;;;;;;22.60;21.00;;;;;23.40;51.94;99222.69;4891913;29;8879;-80
2023/07/05 06:52:25;;;;;;;;;19.40;19.40;;;;;23.24;51.96;99233.78;4891625;29;8884;-78
2023/07/05 06:54:54;;;;;;;;;20.00;18.80;;;;;22.95;52.63;99231.56;4891240;29;8922;-81
2023/07/05 06:57:23;;;;;;;;;20.40;20.00;;;;;23.04;52.83;99226.47;4875615;29;8930;-78
2023/07/05 06:59:52;;;;;;;;;20.40;19.20;;;;;23.55;51.32;99228.69;4891913;29;8868;-78
2023/07/05 07:02:23;;;;;;;;;20.80;17.40;;;;;23.21;52.09;99227.81;4889402;29;8998;-79
2023/07/05 07:04:52;;;;;;;;;14.20;12.60;;;;;23.72;51.05;99225.50;4878052;29;8954;-79
2023/07/05 07:07:20;;;;;;;;;20.40;19.00;;;;;24.19;49.96;99230.66;4911299;29;8875;-78
2023/07/05 07:09:49;;;;;;;;;20.60;20.20;;;;;23.92;49.93;99233.75;4913303;29;8894;-76
2023/07/05 07:12:18;;;;;;;;;19.20;18.80;;;;;23.28;51.38;99234.38;4927578;29;8867;-79
2023/07/05 07:14:47;;;;;;;;;17.60;16.80;;;;;23.78;50.57;99234.88;4912770;29;8879;-78
2023/07/05 07:17:16;;;;;;;;;20.00;20.00;;;;;23.48;51.39;99236.34;4913616;29;8883;-79
2023/07/05 07:19:46;;;;;;;;;19.60;18.60;;;;;23.56;51.15;99230.41;4927653;29;8867;-79
2023/07/05 07:22:15;;;;;;;;;21.40;19.80;;;;;23.94;49.77;99227.28;4913399;29;8875;-81
2023/07/05 07:24:44;;;;;;;;;19.20;18.40;;;;;24.16;48.71;99223.69;4915640;29;8918;-77
2023/07/05 07:27:15;;;;;;;;;16.00;16.00;;;;;23.72;49.70;99233.56;4937483;29;8993;-84
2023/07/05 07:29:44;;;;;;;;;19.40;17.20;;;;;23.34;50.88;99226.72;4913621;29;8886;-78
2023/07/05 07:32:13;;;;;;;;;14.60;14.60;;;;;23.41;51.20;99226.22;4913187;29;8878;-71
2023/07/05 07:34:42;;;;;;;;;17.80;16.60;;;;;24.00;49.59;99222.38;4912352;29;8958;-65
2023/07/05 07:37:12;;;;;;;;;17.40;17.40;;;;;24.21;48.90;99225.19;4912482;29;8851;-68
2023/07/05 07:39:41;;;;;;;;;17.00;17.00;;;;;24.38;48.43;99221.06;4910240;29;8875;-64
2023/07/05 07:42:10;;;;;;;;;18.00;18.00;;;;;24.74;47.01;99222.50;4909589;29;8865;-64
2023/07/05 07:44:39;;;;;;;;;25.00;23.80;;;;;24.92;46.88;99220.06;4912130;29;8891;-65
2023/07/05 07:47:08;;;;;;;;;17.80;17.80;;;;;24.51;47.65;99221.75;4911855;29;8884;-66
2023/07/05 07:49:37;;;;;;;;;19.60;18.40;;;;;24.86;46.45;99216.06;4910797;29;8895;-66
2023/07/05 07:52:10;;;;;;;;;18.00;17.60;;;;;24.95;46.43;99221.66;4893070;29;8864;-66
2023/07/05 07:54:40;;;;;;;;;19.40;18.60;;;;;24.36;47.43;99231.94;4911581;29;8910;-65
2023/07/05 07:57:09;;;;;;;;;17.40;17.00;;;;;24.75;46.54;99226.88;4907902;29;8883;-65
2023/07/05 07:59:41;;;;;;;;;18.40;18.20;;;;;24.96;47.08;99220.66;4911378;29;8982;-66
2023/07/05 08:02:13;;;;;;;;;19.00;19.00;;;;;24.74;47.40;99231.41;4877061;29;8890;-68
2023/07/05 08:04:44;;;;;;;;;12.40;10.80;;;;;24.49;47.97;99235.31;4911167;29;8892;-67
2023/07/05 08:07:15;;;;;;;;;19.20;18.60;;;;;24.06;49.51;99233.47;4911342;29;8884;-69
2023/07/05 08:09:49;;;;;;;;;23.00;21.80;;;;;23.87;49.55;99238.66;4926008;29;8890;-69
2023/07/05 08:12:18;;;;;;;;;24.60;23.40;;;;;23.89;49.66;99237.56;4911391;29;8867;-67
2023/07/05 08:14:47;;;;;;;;;15.20;13.80;;;;;24.40;48.10;99236.09;4911753;29;8875;-68
2023/07/05 08:17:16;;;;;;;;;19.20;18.40;;;;;24.72;47.20;99241.41;4911317;29;8984;-67
2023/07/05 08:19:44;;;;;;;;;19.80;18.80;;;;;23.65;50.07;99244.91;4910223;29;8871;-68
2023/07/05 08:22:13;;;;;;;;;20.40;19.20;;;;;22.71;52.77;99249.50;4911625;29;9005;-67
2023/07/05 08:24:45;;;;;;;;;18.80;17.60;;;;;22.81;52.84;99240.66;4911816;29;8909;-70
2023/07/05 08:27:14;;;;;;;;;19.00;19.00;;;;;22.85;52.78;99243.94;4911154;29;10105;-67
2023/07/05 08:29:43;;;;;;;;;22.20;21.80;;;;;22.73;52.63;99245.75;4911943;29;8859;-66
2023/07/05 08:32:11;;;;;;;;;19.20;18.00;;;;;23.61;50.46;99244.31;4911192;29;9700;-73
2023/07/05 08:34:40;;;;;;;;;17.60;16.80;;;;;23.40;50.41;99249.53;4911582;29;8860;-74
2023/07/05 08:37:10;;;;;;;;;18.40;18.40;;;;;23.58;50.52;99248.09;4926018;29;8864;-74
2023/07/05 08:39:39;;;;;;;;;18.60;18.40;;;;;23.38;50.53;99252.31;4911676;29;9156;-73
2023/07/05 08:42:30;;;;;;;;;24.80;24.40;;;;;23.31;50.35;99248.41;4908206;29;8875;-76
2023/07/05 08:45:10;;;;;;;;;23.20;18.20;;;;;23.80;49.03;99240.97;4870810;29;8956;-72
2023/07/05 08:47:47;;;;;;;;;17.40;17.20;;;;;24.54;47.33;99238.44;4870456;29;8935;-72
2023/07/05 08:50:23;;;;;;;;;18.00;18.00;;;;;25.16;46.13;99246.66;4871108;29;8864;-78
2023/07/05 08:53:05;;;;;;;;;19.20;19.20;;;;;25.52;44.74;99256.06;4867598;29;8899;-75
2023/07/05 08:55:48;;;;;;;;;18.80;17.40;;;;;26.06;44.48;99243.22;4869334;29;8877;-77
2023/07/05 08:58:23;;;;;;;;;20.80;19.60;;;;;25.97;43.72;99245.91;4870882;29;9028;-78
2023/07/05 09:00:58;;;;;;;;;18.00;17.40;;;;;26.42;42.70;99248.91;4870789;29;9682;-75
2023/07/05 09:03:29;;;;;;;;;18.60;17.40;;;;;26.74;42.18;99247.81;4870384;29;8911;-76
2023/07/05 09:06:19;;;;;;;;;21.20;19.40;;;;;27.13;41.34;99236.94;4870719;29;8964;-74
2023/07/05 09:09:00;;;;;;;;;20.60;19.40;;;;;27.44;40.39;99239.41;4815430;29;9072;-68
2023/07/05 09:11:45;;;;;;;;;22.60;21.20;;;;;27.33;39.85;99235.03;4814784;29;8880;-68
2023/07/05 09:14:23;;;;;;;;;23.80;21.00;;;;;27.55;40.26;99233.81;4815703;29;8896;-65
2023/07/05 09:17:00;;;;;;;;;22.00;19.60;;;;;27.54;39.84;99233.97;4793433;29;8877;-64
2023/07/05 09:19:45;;;;;;;;;22.00;22.00;;;;;27.89;38.93;99221.56;4783717;29;9043;-68
2023/07/05 09:22:20;;;;;;;;;20.20;20.00;;;;;27.90;38.91;99226.81;4817948;29;8881;-67
2023/07/05 09:24:49;;;;;;;;;30.60;25.20;;;;;28.12;38.14;99232.81;4871069;29;9019;-71
2023/07/05 09:27:21;;;;;;;;;20.80;19.80;;;;;28.26;37.68;99223.34;4870784;29;9710;-71
2023/07/05 09:29:56;;;;;;;;;21.60;21.60;;;;;28.45;37.70;99222.31;4866715;29;9013;-68
2023/07/05 09:32:29;;;;;;;;;26.00;25.60;;;;;28.60;37.02;99215.34;4838020;29;8921;-68
2023/07/05 09:35:00;;;;;;;;;20.40;19.20;;;;;28.67;37.30;99224.56;4855738;29;8965;-69
2023/07/05 09:37:32;;;;;;;;;21.40;21.40;;;;;28.88;36.88;99217.94;4855778;29;8916;-70
2023/07/05 09:40:11;;;;;;;;;21.80;19.60;;;;;29.13;36.87;99213.53;4855639;29;8880;-69
2023/07/05 09:42:47;;;;;;;;;23.00;21.20;;;;;29.27;36.71;99212.94;4855549;29;9685;-71
2023/07/05 09:45:18;;;;;;;;;21.40;20.40;;;;;29.46;36.48;99211.00;4849998;29;8885;-70
2023/07/05 09:47:51;;;;;;;;;22.00;22.00;;;;;29.71;35.61;99215.53;4913415;29;8863;-70
2023/07/05 09:50:21;;;;;;;;;24.40;23.40;;;;;29.82;35.91;99211.69;4914279;29;8993;-69
2023/07/05 09:52:53;;;;;;;;;23.00;21.40;;;;;30.04;35.19;99215.63;4914303;29;8918;-69
2023/07/05 09:55:21;;;;;;;;;26.00;26.00;;;;;30.17;35.40;99209.72;4911422;29;8990;-69
2023/07/05 09:57:52;;;;;;;;;22.00;22.00;;;;;30.38;34.85;99213.84;4914207;29;8868;-70
2023/07/05 10:00:26;;;;;;;;;22.80;21.60;;;;;30.58;34.58;99198.03;4911577;29;8901;-70
2023/07/05 10:03:07;;;;;;;;;22.75;22.00;;;;;30.66;34.14;99203.50;4907852;29;8885;-71
2023/07/05 10:05:36;;;;;;;;;23.50;23.50;;;;;30.71;33.92;99211.97;4910073;29;8875;-74
2023/07/05 10:08:15;;;;;;;;;22.75;21.75;;;;;30.65;33.86;99205.38;4911319;29;8965;-75
2023/07/05 10:10:44;;;;;;;;;25.00;24.25;;;;;30.66;34.15;99203.50;4894992;29;8990;-75
2023/07/05 10:13:15;;;;;;;;;25.25;25.25;;;;;30.80;33.98;99207.41;4911373;29;8870;-75
2023/07/05 10:15:47;;;;;;;;;23.75;23.00;;;;;30.84;33.65;99200.59;4908339;29;8971;-75
2023/07/05 10:18:27;;;;;;;;;25.00;25.00;;;;;30.72;33.58;99194.69;4902146;29;8866;-74
2023/07/05 10:20:58;;;;;;;;;29.75;28.25;;;;;29.65;35.10;99196.34;4911113;29;8882;-76
2023/07/05 10:23:30;;;;;;;;;26.25;25.25;;;;;29.73;35.40;99201.84;4910627;29;8874;-75
2023/07/05 10:26:02;;;;;;;;;25.00;24.75;;;;;29.72;35.28;99192.00;4910768;29;9021;-74
2023/07/05 10:28:33;;;;;;;;;28.50;26.00;;;;;28.47;36.89;99191.41;4910900;29;8882;-76
2023/07/05 10:31:05;;;;;;;;;31.75;30.50;;;;;28.71;36.69;99195.34;4900406;29;8895;-79
2023/07/05 10:33:36;;;;;;;;;28.50;27.50;;;;;28.99;37.04;99188.75;4912981;29;8867;-76
2023/07/05 10:36:13;;;;;;;;;29.25;27.00;;;;;29.29;35.59;99183.00;4912882;29;9078;-76
2023/07/05 10:38:46;;;;;;;;;29.75;28.50;;;;;29.55;35.25;99183.78;4913219;29;8864;-74
2023/07/05 10:41:25;;;;;;;;;29.75;29.00;;;;;29.93;35.35;99184.25;4911475;29;9641;-74
2023/07/05 10:44:02;;;;;;;;;26.00;26.00;;;;;29.94;35.02;99180.53;4913769;29;8863;-76
2023/07/05 10:46:36;;;;;;;;;29.50;28.00;;;;;29.92;34.64;99177.16;4898903;29;8883;-75
2023/07/05 10:49:09;;;;;;;;;26.00;24.50;;;;;30.13;34.55;99170.41;4913051;29;8901;-75
2023/07/05 10:51:42;;;;;;;;;29.25;28.75;;;;;30.44;34.82;99164.34;4911740;29;9002;-73
2023/07/05 10:54:18;;;;;;;;;30.00;28.75;;;;;30.63;33.73;99163.97;4913580;29;8887;-75
2023/07/05 10:56:48;;;;;;;;;30.50;29.75;;;;;30.25;33.91;99166.38;4912960;29;9684;-77
2023/07/05 10:59:27;;;;;;;;;28.25;27.75;;;;;30.25;34.41;99152.81;4913825;29;8923;-75
2023/07/05 11:02:18;;;;;;;;;30.50;29.50;;;;;30.29;34.05;99162.28;4915966;29;8863;-76
2023/07/05 11:04:50;;;;;;;;;28.00;28.00;;;;;29.62;34.86;99159.63;4912879;29;8859;-76
2023/07/05 11:07:21;;;;;;;;;25.50;24.00;;;;;30.17;34.41;99154.66;4912999;29;8879;-75
2023/07/05 11:09:50;;;;;;;;;29.00;29.00;;;;;29.40;34.85;99152.94;4912917;29;8875;-76
2023/07/05 11:12:21;;;;;;;;;31.50;30.50;;;;;28.92;35.82;99148.97;4910161;29;8867;-73
2023/07/05 11:14:52;;;;;;;;;29.50;27.50;;;;;28.24;36.72;99150.50;4912617;29;8868;-73
2023/07/05 11:17:27;;;;;;;;;30.50;29.50;;;;;28.28;36.76;99153.75;4907080;29;9632;-75
2023/07/05 11:19:56;;;;;;;;;27.00;27.00;;;;;27.82;37.62;99140.31;4906618;29;8950;-74
2023/07/05 11:22:38;;;;;;;;;24.75;24.00;;;;;28.62;36.06;99139.47;4912543;29;8994;-77
2023/07/05 11:25:11;;;;;;;;;26.25;24.75;;;;;28.57;36.83;99134.53;4912773;29;8960;-78
2023/07/05 11:27:57;;;;;;;;;29.50;29.25;;;;;28.81;36.50;99138.44;4913135;29;8901;-74
2023/07/05 11:30:46;;;;;;;;;29.50;28.75;;;;;28.16;37.23;99131.53;4913295;29;8879;-75
2023/07/05 11:33:20;;;;;;;;;27.00;25.75;;;;;27.99;37.66;99133.19;4913147;29;8879;-75
2023/07/05 11:35:53;;;;;;;;;28.75;28.25;;;;;27.99;37.47;99138.59;4912548;29;8918;-76
2023/07/05 11:38:56;;;;;;;;;28.50;27.75;;;;;28.47;36.61;99131.09;4927279;29;8883;-76
2023/07/05 11:41:34;;;;;;;;;27.25;24.00;;;;;28.91;35.69;99121.06;4912738;29;8954;-76
2023/07/05 11:44:05;;;;;;;;;27.50;26.00;;;;;29.28;35.56;99122.63;4926972;29;9010;-77
2023/07/05 11:46:45;;;;;;;;;29.75;28.50;;;;;29.66;35.55;99120.34;4912972;29;8915;-76